Airfield :
LOGIN :

Register | Disclaimer

   EN    FR    IT 

 










Legend :    VFR   Marginal VFR   IFR   Intensive IFR   Very Intensive IFR
Visi :
Ceiling :
>= 8 km
>= 3000ft
5 to 8 km
1000 to 3000 ft
1500m to 5 km
500 to 1000 ft
800 to 1500m
200 to 500 ft
< 800m
< 200 ft
Symbols :   Thunderstorms  Fog  Heavy snow  Heavy precipitations  Wind > 20 kt
SIGMETs :     Misc.  Thunderstorms  Icing  Turbulence  Mountain Waves  Volcanic Ashes







- Airport Elevation : 791 ft
- IATA code : KRK


EPKK - Krakow-Balice

CURRENT METAR :
  • 190830Z VRB01KT 4000 BR NSC 04/M01 Q1017

EXPIRED METARs :
  • 190800Z VRB01KT 3000 BR NSC 02/M00 Q1017
  • 190730Z VRB02KT 3000 BR NSC M01/M02 Q1018
  • 190700Z VRB02KT 3000 BR NSC M02/M03 Q1018
  • 190630Z VRB01KT 2800 BR NSC M03/M04 Q1018
  • 190600Z VRB02KT 2600 BR NSC M04/M05 Q1018

TAF TAF EPKK
Valid from the 19 at 09:00 until the 20 at 09:00 UTC


190830Z 1909/2009 VRB02KT 4000 BR NSC
BECMG 1909/1911 CAVOK
BECMG 1912/1915 25010KT
BECMG 1920/1922 4000 RA BR BKN013
BECMG 2000/2003 6000 BKN025
TEMPO 2003/2009 4000 SHRA BKN014 BKN025CB
No reported NOTAMs for that airfield.



MET'MAP, your aeronautical weather chart ! - Copyright ORBIFLY December 2007 - Disclaimer

ORBIFLY MET'MAP TEAM :

Programming & Development : Alexandra Zaïnal
Concept & Development : Baudouin d'Aumeries
Co-Development & Prog : Marc-Olivier Méhu
Technical & hardware support : Manuel Goepfert

Contact : metmap@orbifly.com




SOURCES & CREDITS :

   NOAA